sensor_id;sensor_type;location;lat;lon;timestamp;P1;durP1;ratioP1;P2;durP2;ratioP2
52104;SDS011;38103;42.776;23.112;2023-08-07T00:00:21;9.30;;;4.50;;
52104;SDS011;38103;42.776;23.112;2023-08-07T00:02:47;10.45;;;4.82;;
52104;SDS011;38103;42.776;23.112;2023-08-07T00:05:12;9.30;;;4.70;;
52104;SDS011;38103;42.776;23.112;2023-08-07T00:07:38;9.80;;;4.90;;
52104;SDS011;38103;42.776;23.112;2023-08-07T00:10:03;10.88;;;4.75;;
52104;SDS011;38103;42.776;23.112;2023-08-07T00:12:29;10.18;;;4.75;;
52104;SDS011;38103;42.776;23.112;2023-08-07T00:14:54;9.95;;;4.85;;
52104;SDS011;38103;42.776;23.112;2023-08-07T00:17:20;9.40;;;4.75;;
52104;SDS011;38103;42.776;23.112;2023-08-07T00:19:45;9.55;;;4.78;;
52104;SDS011;38103;42.776;23.112;2023-08-07T00:22:10;9.63;;;4.60;;
52104;SDS011;38103;42.776;23.112;2023-08-07T00:24:36;9.65;;;4.82;;
52104;SDS011;38103;42.776;23.112;2023-08-07T00:27:01;9.85;;;4.97;;
52104;SDS011;38103;42.776;23.112;2023-08-07T00:29:28;11.50;;;5.22;;
52104;SDS011;38103;42.776;23.112;2023-08-07T00:31:53;9.35;;;4.70;;
52104;SDS011;38103;42.776;23.112;2023-08-07T00:34:18;11.57;;;5.00;;
52104;SDS011;38103;42.776;23.112;2023-08-07T00:36:44;10.07;;;5.18;;
52104;SDS011;38103;42.776;23.112;2023-08-07T00:39:09;10.18;;;5.40;;
52104;SDS011;38103;42.776;23.112;2023-08-07T00:41:34;9.70;;;5.15;;
52104;SDS011;38103;42.776;23.112;2023-08-07T00:44:00;10.88;;;5.78;;
52104;SDS011;38103;42.776;23.112;2023-08-07T00:46:26;11.93;;;5.90;;
52104;SDS011;38103;42.776;23.112;2023-08-07T00:48:52;12.07;;;5.80;;
52104;SDS011;38103;42.776;23.112;2023-08-07T00:51:19;10.52;;;5.35;;
52104;SDS011;38103;42.776;23.112;2023-08-07T00:53:45;10.77;;;4.95;;
52104;SDS011;38103;42.776;23.112;2023-08-07T00:56:12;11.10;;;4.63;;
52104;SDS011;38103;42.776;23.112;2023-08-07T00:58:37;11.18;;;4.68;;
52104;SDS011;38103;42.776;23.112;2023-08-07T01:01:04;10.75;;;4.90;;
52104;SDS011;38103;42.776;23.112;2023-08-07T01:03:30;11.32;;;5.93;;
52104;SDS011;38103;42.776;23.112;2023-08-07T01:05:55;10.32;;;5.60;;
52104;SDS011;38103;42.776;23.112;2023-08-07T01:08:21;10.65;;;5.80;;
52104;SDS011;38103;42.776;23.112;2023-08-07T01:16:17;13.32;;;5.38;;
52104;SDS011;38103;42.776;23.112;2023-08-07T01:18:46;9.55;;;5.18;;
52104;SDS011;38103;42.776;23.112;2023-08-07T01:21:19;9.90;;;5.20;;
52104;SDS011;38103;42.776;23.112;2023-08-07T01:23:48;10.20;;;5.05;;
52104;SDS011;38103;42.776;23.112;2023-08-07T01:26:16;13.30;;;5.57;;
52104;SDS011;38103;42.776;23.112;2023-08-07T01:28:46;10.18;;;5.53;;
52104;SDS011;38103;42.776;23.112;2023-08-07T01:31:31;10.95;;;5.38;;
52104;SDS011;38103;42.776;23.112;2023-08-07T01:34:02;12.00;;;5.40;;
52104;SDS011;38103;42.776;23.112;2023-08-07T01:36:31;11.50;;;5.73;;
52104;SDS011;38103;42.776;23.112;2023-08-07T01:38:58;13.07;;;6.32;;
52104;SDS011;38103;42.776;23.112;2023-08-07T01:41:25;10.82;;;5.78;;
52104;SDS011;38103;42.776;23.112;2023-08-07T01:43:51;10.43;;;5.95;;
52104;SDS011;38103;42.776;23.112;2023-08-07T01:46:18;10.43;;;6.00;;
52104;SDS011;38103;42.776;23.112;2023-08-07T01:48:44;10.35;;;5.90;;
52104;SDS011;38103;42.776;23.112;2023-08-07T01:51:09;11.00;;;5.75;;
52104;SDS011;38103;42.776;23.112;2023-08-07T01:53:34;11.73;;;6.18;;
52104;SDS011;38103;42.776;23.112;2023-08-07T01:56:00;10.55;;;6.15;;
52104;SDS011;38103;42.776;23.112;2023-08-07T01:58:25;10.80;;;6.28;;
52104;SDS011;38103;42.776;23.112;2023-08-07T02:00:51;15.20;;;6.50;;
52104;SDS011;38103;42.776;23.112;2023-08-07T02:03:16;10.40;;;5.85;;
52104;SDS011;38103;42.776;23.112;2023-08-07T02:05:44;11.00;;;6.30;;
52104;SDS011;38103;42.776;23.112;2023-08-07T02:08:10;10.25;;;6.28;;
52104;SDS011;38103;42.776;23.112;2023-08-07T02:10:35;12.30;;;6.15;;
52104;SDS011;38103;42.776;23.112;2023-08-07T02:13:01;11.18;;;6.53;;
52104;SDS011;38103;42.776;23.112;2023-08-07T02:15:26;10.68;;;6.38;;
52104;SDS011;38103;42.776;23.112;2023-08-07T02:17:51;12.93;;;6.05;;
52104;SDS011;38103;42.776;23.112;2023-08-07T02:20:17;10.90;;;6.32;;
52104;SDS011;38103;42.776;23.112;2023-08-07T02:22:42;10.45;;;6.03;;
52104;SDS011;38103;42.776;23.112;2023-08-07T02:25:08;10.25;;;5.53;;
52104;SDS011;38103;42.776;23.112;2023-08-07T02:27:33;11.98;;;6.40;;
52104;SDS011;38103;42.776;23.112;2023-08-07T02:29:59;11.13;;;5.90;;
52104;SDS011;38103;42.776;23.112;2023-08-07T02:32:24;11.13;;;6.20;;
52104;SDS011;38103;42.776;23.112;2023-08-07T02:34:49;11.90;;;6.53;;
52104;SDS011;38103;42.776;23.112;2023-08-07T02:37:15;11.65;;;6.20;;
52104;SDS011;38103;42.776;23.112;2023-08-07T02:39:41;11.02;;;6.90;;
52104;SDS011;38103;42.776;23.112;2023-08-07T02:42:07;11.48;;;6.40;;
52104;SDS011;38103;42.776;23.112;2023-08-07T02:44:32;11.48;;;6.72;;
52104;SDS011;38103;42.776;23.112;2023-08-07T02:46:58;12.32;;;6.93;;
52104;SDS011;38103;42.776;23.112;2023-08-07T02:49:23;13.20;;;6.45;;
52104;SDS011;38103;42.776;23.112;2023-08-07T02:51:48;11.80;;;6.28;;
52104;SDS011;38103;42.776;23.112;2023-08-07T02:54:14;10.68;;;6.18;;
52104;SDS011;38103;42.776;23.112;2023-08-07T02:56:39;11.98;;;6.35;;
52104;SDS011;38103;42.776;23.112;2023-08-07T02:59:05;11.68;;;6.40;;
52104;SDS011;38103;42.776;23.112;2023-08-07T03:01:31;12.48;;;6.32;;
52104;SDS011;38103;42.776;23.112;2023-08-07T03:03:56;10.77;;;6.25;;
52104;SDS011;38103;42.776;23.112;2023-08-07T03:06:22;10.40;;;6.05;;
52104;SDS011;38103;42.776;23.112;2023-08-07T03:08:47;12.57;;;5.90;;
52104;SDS011;38103;42.776;23.112;2023-08-07T03:11:12;12.38;;;5.93;;
52104;SDS011;38103;42.776;23.112;2023-08-07T03:13:38;11.52;;;5.68;;
52104;SDS011;38103;42.776;23.112;2023-08-07T03:16:04;12.77;;;6.18;;
52104;SDS011;38103;42.776;23.112;2023-08-07T03:18:30;10.32;;;5.63;;
52104;SDS011;38103;42.776;23.112;2023-08-07T03:20:56;11.70;;;5.70;;
52104;SDS011;38103;42.776;23.112;2023-08-07T03:23:23;11.10;;;6.15;;
52104;SDS011;38103;42.776;23.112;2023-08-07T03:25:49;10.32;;;5.78;;
52104;SDS011;38103;42.776;23.112;2023-08-07T03:28:15;11.32;;;6.30;;
52104;SDS011;38103;42.776;23.112;2023-08-07T03:30:40;12.25;;;5.40;;
52104;SDS011;38103;42.776;23.112;2023-08-07T03:33:06;10.45;;;5.63;;
52104;SDS011;38103;42.776;23.112;2023-08-07T03:35:32;10.60;;;6.03;;
52104;SDS011;38103;42.776;23.112;2023-08-07T03:37:57;11.23;;;6.00;;
52104;SDS011;38103;42.776;23.112;2023-08-07T03:40:22;10.25;;;5.70;;
52104;SDS011;38103;42.776;23.112;2023-08-07T03:42:48;10.82;;;5.10;;
52104;SDS011;38103;42.776;23.112;2023-08-07T03:45:13;10.55;;;5.03;;
52104;SDS011;38103;42.776;23.112;2023-08-07T03:47:39;9.90;;;4.85;;
52104;SDS011;38103;42.776;23.112;2023-08-07T03:50:04;10.02;;;4.70;;
52104;SDS011;38103;42.776;23.112;2023-08-07T03:52:30;9.80;;;4.90;;
52104;SDS011;38103;42.776;23.112;2023-08-07T03:54:55;10.13;;;5.20;;
52104;SDS011;38103;42.776;23.112;2023-08-07T03:57:21;10.00;;;4.88;;
52104;SDS011;38103;42.776;23.112;2023-08-07T03:59:46;9.43;;;4.80;;
52104;SDS011;38103;42.776;23.112;2023-08-07T04:02:12;9.23;;;4.90;;
52104;SDS011;38103;42.776;23.112;2023-08-07T04:04:37;9.55;;;4.63;;
52104;SDS011;38103;42.776;23.112;2023-08-07T04:07:02;10.27;;;4.60;;
52104;SDS011;38103;42.776;23.112;2023-08-07T04:09:28;11.82;;;4.60;;
52104;SDS011;38103;42.776;23.112;2023-08-07T04:11:53;10.38;;;4.32;;
52104;SDS011;38103;42.776;23.112;2023-08-07T04:14:19;10.00;;;4.50;;
52104;SDS011;38103;42.776;23.112;2023-08-07T04:16:44;9.20;;;4.60;;
52104;SDS011;38103;42.776;23.112;2023-08-07T04:19:10;10.00;;;4.35;;
52104;SDS011;38103;42.776;23.112;2023-08-07T04:21:35;11.18;;;4.50;;
52104;SDS011;38103;42.776;23.112;2023-08-07T04:24:01;9.82;;;4.88;;
52104;SDS011;38103;42.776;23.112;2023-08-07T04:26:26;9.30;;;4.63;;
52104;SDS011;38103;42.776;23.112;2023-08-07T04:28:52;10.07;;;4.72;;
52104;SDS011;38103;42.776;23.112;2023-08-07T04:31:17;9.30;;;4.60;;
52104;SDS011;38103;42.776;23.112;2023-08-07T04:33:42;12.35;;;5.20;;
52104;SDS011;38103;42.776;23.112;2023-08-07T04:36:08;10.32;;;4.30;;
52104;SDS011;38103;42.776;23.112;2023-08-07T04:38:33;10.15;;;5.30;;
52104;SDS011;38103;42.776;23.112;2023-08-07T04:40:59;9.75;;;4.78;;
52104;SDS011;38103;42.776;23.112;2023-08-07T04:43:24;9.68;;;4.50;;
52104;SDS011;38103;42.776;23.112;2023-08-07T04:45:49;10.88;;;4.70;;
52104;SDS011;38103;42.776;23.112;2023-08-07T04:48:15;10.00;;;4.10;;
52104;SDS011;38103;42.776;23.112;2023-08-07T04:50:41;8.65;;;3.95;;
52104;SDS011;38103;42.776;23.112;2023-08-07T04:53:06;9.60;;;4.13;;
52104;SDS011;38103;42.776;23.112;2023-08-07T04:55:32;9.07;;;4.28;;
52104;SDS011;38103;42.776;23.112;2023-08-07T04:57:58;10.25;;;3.80;;
52104;SDS011;38103;42.776;23.112;2023-08-07T05:00:24;8.63;;;3.60;;
52104;SDS011;38103;42.776;23.112;2023-08-07T05:02:49;8.77;;;3.88;;
52104;SDS011;38103;42.776;23.112;2023-08-07T05:05:15;8.40;;;3.50;;
52104;SDS011;38103;42.776;23.112;2023-08-07T05:07:41;8.80;;;3.67;;
52104;SDS011;38103;42.776;23.112;2023-08-07T05:10:08;9.45;;;3.50;;
52104;SDS011;38103;42.776;23.112;2023-08-07T05:12:34;8.70;;;3.63;;
52104;SDS011;38103;42.776;23.112;2023-08-07T05:14:59;8.20;;;3.42;;
52104;SDS011;38103;42.776;23.112;2023-08-07T05:29:21;7.20;;;2.90;;
52104;SDS011;38103;42.776;23.112;2023-08-07T05:31:46;9.00;;;3.22;;
52104;SDS011;38103;42.776;23.112;2023-08-07T05:34:11;8.38;;;3.30;;
52104;SDS011;38103;42.776;23.112;2023-08-07T05:36:37;7.65;;;3.13;;
52104;SDS011;38103;42.776;23.112;2023-08-07T05:39:04;9.60;;;3.13;;
52104;SDS011;38103;42.776;23.112;2023-08-07T05:41:29;7.57;;;3.03;;
52104;SDS011;38103;42.776;23.112;2023-08-07T05:43:54;8.30;;;2.90;;
52104;SDS011;38103;42.776;23.112;2023-08-07T05:46:20;8.38;;;3.10;;
52104;SDS011;38103;42.776;23.112;2023-08-07T05:48:45;7.97;;;3.17;;
52104;SDS011;38103;42.776;23.112;2023-08-07T05:51:11;9.65;;;3.10;;
52104;SDS011;38103;42.776;23.112;2023-08-07T05:53:36;8.50;;;2.88;;
52104;SDS011;38103;42.776;23.112;2023-08-07T05:56:02;8.75;;;3.20;;
52104;SDS011;38103;42.776;23.112;2023-08-07T05:58:28;7.50;;;2.80;;
52104;SDS011;38103;42.776;23.112;2023-08-07T06:00:53;7.60;;;2.72;;
52104;SDS011;38103;42.776;23.112;2023-08-07T06:03:18;6.07;;;2.50;;
52104;SDS011;38103;42.776;23.112;2023-08-07T06:05:44;7.30;;;2.80;;
52104;SDS011;38103;42.776;23.112;2023-08-07T06:08:09;7.07;;;2.85;;
52104;SDS011;38103;42.776;23.112;2023-08-07T06:10:34;7.40;;;2.90;;
52104;SDS011;38103;42.776;23.112;2023-08-07T06:13:00;9.15;;;2.88;;
52104;SDS011;38103;42.776;23.112;2023-08-07T06:15:25;9.65;;;2.72;;
52104;SDS011;38103;42.776;23.112;2023-08-07T06:17:52;7.20;;;2.60;;
52104;SDS011;38103;42.776;23.112;2023-08-07T06:20:17;9.93;;;2.80;;
52104;SDS011;38103;42.776;23.112;2023-08-07T06:22:43;6.45;;;2.40;;
52104;SDS011;38103;42.776;23.112;2023-08-07T06:25:08;6.78;;;2.58;;
52104;SDS011;38103;42.776;23.112;2023-08-07T06:27:34;8.27;;;2.45;;
52104;SDS011;38103;42.776;23.112;2023-08-07T06:29:59;8.85;;;2.63;;
52104;SDS011;38103;42.776;23.112;2023-08-07T06:32:25;6.97;;;2.60;;
52104;SDS011;38103;42.776;23.112;2023-08-07T06:34:51;6.10;;;2.40;;
52104;SDS011;38103;42.776;23.112;2023-08-07T06:37:17;5.40;;;2.30;;
52104;SDS011;38103;42.776;23.112;2023-08-07T06:39:42;6.75;;;2.70;;
52104;SDS011;38103;42.776;23.112;2023-08-07T06:42:08;7.90;;;2.60;;
52104;SDS011;38103;42.776;23.112;2023-08-07T06:44:33;8.48;;;2.17;;
52104;SDS011;38103;42.776;23.112;2023-08-07T06:46:59;8.00;;;2.53;;
52104;SDS011;38103;42.776;23.112;2023-08-07T06:49:24;5.13;;;2.20;;
52104;SDS011;38103;42.776;23.112;2023-08-07T06:51:49;5.28;;;2.20;;
52104;SDS011;38103;42.776;23.112;2023-08-07T06:54:15;5.90;;;2.20;;
52104;SDS011;38103;42.776;23.112;2023-08-07T06:56:40;6.28;;;2.00;;
52104;SDS011;38103;42.776;23.112;2023-08-07T06:59:07;4.20;;;1.83;;
52104;SDS011;38103;42.776;23.112;2023-08-07T07:01:32;4.85;;;1.90;;
52104;SDS011;38103;42.776;23.112;2023-08-07T07:03:58;7.63;;;2.00;;
52104;SDS011;38103;42.776;23.112;2023-08-07T07:06:23;4.80;;;1.95;;
52104;SDS011;38103;42.776;23.112;2023-08-07T07:08:51;3.53;;;1.70;;
52104;SDS011;38103;42.776;23.112;2023-08-07T07:11:19;4.85;;;1.73;;
52104;SDS011;38103;42.776;23.112;2023-08-07T07:13:45;3.50;;;1.65;;
52104;SDS011;38103;42.776;23.112;2023-08-07T07:16:11;6.03;;;2.00;;
52104;SDS011;38103;42.776;23.112;2023-08-07T07:18:38;6.30;;;2.10;;
52104;SDS011;38103;42.776;23.112;2023-08-07T07:21:03;6.13;;;2.20;;
52104;SDS011;38103;42.776;23.112;2023-08-07T07:23:29;7.03;;;2.15;;
52104;SDS011;38103;42.776;23.112;2023-08-07T07:25:54;4.88;;;2.03;;
52104;SDS011;38103;42.776;23.112;2023-08-07T07:28:20;4.40;;;1.88;;
52104;SDS011;38103;42.776;23.112;2023-08-07T07:30:46;4.88;;;1.98;;
52104;SDS011;38103;42.776;23.112;2023-08-07T07:33:11;5.55;;;2.00;;
52104;SDS011;38103;42.776;23.112;2023-08-07T07:35:38;5.30;;;2.00;;
52104;SDS011;38103;42.776;23.112;2023-08-07T07:38:04;4.90;;;2.03;;
52104;SDS011;38103;42.776;23.112;2023-08-07T07:40:30;4.78;;;1.80;;
52104;SDS011;38103;42.776;23.112;2023-08-07T07:42:56;4.47;;;2.00;;
52104;SDS011;38103;42.776;23.112;2023-08-07T07:45:21;5.32;;;1.92;;
52104;SDS011;38103;42.776;23.112;2023-08-07T07:47:46;6.15;;;2.05;;
52104;SDS011;38103;42.776;23.112;2023-08-07T07:50:12;5.50;;;1.77;;
52104;SDS011;38103;42.776;23.112;2023-08-07T07:52:38;4.45;;;1.98;;
52104;SDS011;38103;42.776;23.112;2023-08-07T07:55:04;6.85;;;2.10;;
52104;SDS011;38103;42.776;23.112;2023-08-07T07:57:30;5.93;;;2.13;;
52104;SDS011;38103;42.776;23.112;2023-08-07T07:59:55;5.30;;;2.10;;
52104;SDS011;38103;42.776;23.112;2023-08-07T08:02:21;6.95;;;2.17;;
52104;SDS011;38103;42.776;23.112;2023-08-07T08:04:49;8.38;;;2.50;;
52104;SDS011;38103;42.776;23.112;2023-08-07T08:07:15;6.10;;;2.35;;
52104;SDS011;38103;42.776;23.112;2023-08-07T08:09:41;5.85;;;2.20;;
52104;SDS011;38103;42.776;23.112;2023-08-07T08:12:07;6.25;;;2.17;;
52104;SDS011;38103;42.776;23.112;2023-08-07T08:14:33;6.18;;;2.00;;
52104;SDS011;38103;42.776;23.112;2023-08-07T08:16:58;6.07;;;2.40;;
52104;SDS011;38103;42.776;23.112;2023-08-07T08:19:23;10.25;;;2.42;;
52104;SDS011;38103;42.776;23.112;2023-08-07T08:21:49;6.10;;;2.20;;
52104;SDS011;38103;42.776;23.112;2023-08-07T08:24:14;6.85;;;2.42;;
52104;SDS011;38103;42.776;23.112;2023-08-07T08:26:39;7.28;;;2.40;;
52104;SDS011;38103;42.776;23.112;2023-08-07T08:29:07;10.70;;;2.45;;
52104;SDS011;38103;42.776;23.112;2023-08-07T08:31:33;6.22;;;2.25;;
52104;SDS011;38103;42.776;23.112;2023-08-07T08:33:59;4.28;;;1.95;;
52104;SDS011;38103;42.776;23.112;2023-08-07T08:36:25;5.47;;;2.17;;
52104;SDS011;38103;42.776;23.112;2023-08-07T08:38:50;5.15;;;2.17;;
52104;SDS011;38103;42.776;23.112;2023-08-07T08:41:16;6.15;;;2.17;;
52104;SDS011;38103;42.776;23.112;2023-08-07T08:43:43;5.57;;;2.17;;
52104;SDS011;38103;42.776;23.112;2023-08-07T08:46:14;6.55;;;2.40;;
52104;SDS011;38103;42.776;23.112;2023-08-07T08:48:41;5.85;;;2.22;;
52104;SDS011;38103;42.776;23.112;2023-08-07T08:51:11;6.28;;;2.13;;
52104;SDS011;38103;42.776;23.112;2023-08-07T08:53:38;6.32;;;2.40;;
52104;SDS011;38103;42.776;23.112;2023-08-07T08:56:04;5.93;;;2.20;;
52104;SDS011;38103;42.776;23.112;2023-08-07T08:58:31;6.75;;;2.30;;
52104;SDS011;38103;42.776;23.112;2023-08-07T09:00:57;6.50;;;2.28;;
52104;SDS011;38103;42.776;23.112;2023-08-07T09:03:23;6.28;;;2.33;;
52104;SDS011;38103;42.776;23.112;2023-08-07T09:05:49;6.32;;;2.35;;
52104;SDS011;38103;42.776;23.112;2023-08-07T09:08:18;5.85;;;2.30;;
52104;SDS011;38103;42.776;23.112;2023-08-07T09:10:44;7.07;;;2.38;;
52104;SDS011;38103;42.776;23.112;2023-08-07T09:13:11;6.28;;;2.38;;
52104;SDS011;38103;42.776;23.112;2023-08-07T09:15:39;6.28;;;2.40;;
52104;SDS011;38103;42.776;23.112;2023-08-07T09:18:06;9.60;;;2.22;;
52104;SDS011;38103;42.776;23.112;2023-08-07T09:20:33;6.65;;;2.45;;
52104;SDS011;38103;42.776;23.112;2023-08-07T09:23:00;6.25;;;2.28;;
52104;SDS011;38103;42.776;23.112;2023-08-07T09:25:29;5.38;;;2.10;;
52104;SDS011;38103;42.776;23.112;2023-08-07T09:27:56;6.75;;;2.35;;
52104;SDS011;38103;42.776;23.112;2023-08-07T09:30:28;6.43;;;2.20;;
52104;SDS011;38103;42.776;23.112;2023-08-07T09:32:54;6.22;;;2.30;;
52104;SDS011;38103;42.776;23.112;2023-08-07T09:35:21;7.22;;;2.28;;
52104;SDS011;38103;42.776;23.112;2023-08-07T09:37:48;6.10;;;2.20;;
52104;SDS011;38103;42.776;23.112;2023-08-07T09:40:13;8.30;;;2.17;;
52104;SDS011;38103;42.776;23.112;2023-08-07T09:42:40;6.22;;;2.40;;
52104;SDS011;38103;42.776;23.112;2023-08-07T09:45:25;7.25;;;2.42;;
52104;SDS011;38103;42.776;23.112;2023-08-07T09:47:58;6.55;;;2.05;;
52104;SDS011;38103;42.776;23.112;2023-08-07T09:50:28;7.03;;;2.10;;
52104;SDS011;38103;42.776;23.112;2023-08-07T09:52:55;6.05;;;2.00;;
52104;SDS011;38103;42.776;23.112;2023-08-07T09:55:21;6.80;;;2.17;;
52104;SDS011;38103;42.776;23.112;2023-08-07T09:57:47;6.47;;;2.47;;
52104;SDS011;38103;42.776;23.112;2023-08-07T10:00:14;9.05;;;2.40;;
52104;SDS011;38103;42.776;23.112;2023-08-07T10:02:40;6.65;;;2.25;;
52104;SDS011;38103;42.776;23.112;2023-08-07T10:05:07;6.47;;;2.40;;
52104;SDS011;38103;42.776;23.112;2023-08-07T10:07:35;5.70;;;2.10;;
52104;SDS011;38103;42.776;23.112;2023-08-07T10:10:02;4.95;;;1.95;;
52104;SDS011;38103;42.776;23.112;2023-08-07T10:12:28;5.95;;;2.10;;
52104;SDS011;38103;42.776;23.112;2023-08-07T10:14:54;6.03;;;2.35;;
52104;SDS011;38103;42.776;23.112;2023-08-07T10:17:23;6.07;;;2.30;;
52104;SDS011;38103;42.776;23.112;2023-08-07T10:19:50;9.70;;;2.35;;
52104;SDS011;38103;42.776;23.112;2023-08-07T10:22:17;6.15;;;2.40;;
52104;SDS011;38103;42.776;23.112;2023-08-07T10:24:44;6.45;;;2.30;;
52104;SDS011;38103;42.776;23.112;2023-08-07T10:27:13;6.68;;;2.45;;
52104;SDS011;38103;42.776;23.112;2023-08-07T10:29:41;5.30;;;2.17;;
52104;SDS011;38103;42.776;23.112;2023-08-07T10:32:09;5.68;;;2.22;;
52104;SDS011;38103;42.776;23.112;2023-08-07T10:34:36;6.90;;;2.22;;
52104;SDS011;38103;42.776;23.112;2023-08-07T10:37:02;7.20;;;2.40;;
52104;SDS011;38103;42.776;23.112;2023-08-07T10:39:31;6.40;;;2.50;;
52104;SDS011;38103;42.776;23.112;2023-08-07T10:41:56;5.35;;;2.03;;
52104;SDS011;38103;42.776;23.112;2023-08-07T10:46:57;6.93;;;2.38;;
52104;SDS011;38103;42.776;23.112;2023-08-07T10:49:36;7.43;;;2.15;;
52104;SDS011;38103;42.776;23.112;2023-08-07T10:52:09;6.53;;;2.40;;
52104;SDS011;38103;42.776;23.112;2023-08-07T10:54:40;8.68;;;2.65;;
52104;SDS011;38103;42.776;23.112;2023-08-07T10:57:10;7.38;;;2.42;;
52104;SDS011;38103;42.776;23.112;2023-08-07T10:59:37;7.88;;;2.40;;
52104;SDS011;38103;42.776;23.112;2023-08-07T11:02:04;8.27;;;2.30;;
52104;SDS011;38103;42.776;23.112;2023-08-07T11:04:36;5.93;;;2.15;;
52104;SDS011;38103;42.776;23.112;2023-08-07T11:07:04;6.82;;;2.40;;
52104;SDS011;38103;42.776;23.112;2023-08-07T11:09:31;7.65;;;2.47;;
52104;SDS011;38103;42.776;23.112;2023-08-07T11:11:58;8.75;;;2.38;;
52104;SDS011;38103;42.776;23.112;2023-08-07T11:14:24;8.82;;;2.55;;
52104;SDS011;38103;42.776;23.112;2023-08-07T11:16:49;8.60;;;2.63;;
52104;SDS011;38103;42.776;23.112;2023-08-07T11:19:15;6.93;;;2.35;;
52104;SDS011;38103;42.776;23.112;2023-08-07T11:21:42;6.65;;;2.33;;
52104;SDS011;38103;42.776;23.112;2023-08-07T11:24:08;7.65;;;2.45;;
52104;SDS011;38103;42.776;23.112;2023-08-07T11:26:35;5.95;;;2.25;;
52104;SDS011;38103;42.776;23.112;2023-08-07T11:29:00;8.27;;;2.85;;
52104;SDS011;38103;42.776;23.112;2023-08-07T11:31:25;7.55;;;2.65;;
52104;SDS011;38103;42.776;23.112;2023-08-07T11:33:52;9.32;;;3.05;;
52104;SDS011;38103;42.776;23.112;2023-08-07T11:36:19;7.07;;;2.70;;
52104;SDS011;38103;42.776;23.112;2023-08-07T11:38:45;6.57;;;2.50;;
52104;SDS011;38103;42.776;23.112;2023-08-07T11:41:12;7.00;;;2.45;;
52104;SDS011;38103;42.776;23.112;2023-08-07T11:43:38;5.05;;;2.22;;
52104;SDS011;38103;42.776;23.112;2023-08-07T11:46:07;8.27;;;2.17;;
52104;SDS011;38103;42.776;23.112;2023-08-07T11:48:34;7.68;;;2.40;;
52104;SDS011;38103;42.776;23.112;2023-08-07T11:51:02;5.60;;;2.13;;
52104;SDS011;38103;42.776;23.112;2023-08-07T11:53:29;6.68;;;2.50;;
52104;SDS011;38103;42.776;23.112;2023-08-07T11:56:00;7.75;;;2.53;;
52104;SDS011;38103;42.776;23.112;2023-08-07T11:58:28;10.38;;;2.47;;
52104;SDS011;38103;42.776;23.112;2023-08-07T12:01:01;11.02;;;2.53;;
52104;SDS011;38103;42.776;23.112;2023-08-07T12:03:29;6.45;;;2.20;;
52104;SDS011;38103;42.776;23.112;2023-08-07T12:06:03;6.40;;;2.22;;
52104;SDS011;38103;42.776;23.112;2023-08-07T12:08:39;7.75;;;2.45;;
52104;SDS011;38103;42.776;23.112;2023-08-07T12:11:06;7.95;;;2.30;;
52104;SDS011;38103;42.776;23.112;2023-08-07T12:13:36;8.93;;;2.30;;
52104;SDS011;38103;42.776;23.112;2023-08-07T12:16:03;6.40;;;2.33;;
52104;SDS011;38103;42.776;23.112;2023-08-07T12:18:31;6.53;;;2.50;;
52104;SDS011;38103;42.776;23.112;2023-08-07T12:21:00;8.88;;;2.72;;
52104;SDS011;38103;42.776;23.112;2023-08-07T12:23:27;8.63;;;2.60;;
52104;SDS011;38103;42.776;23.112;2023-08-07T12:25:52;7.35;;;2.30;;
52104;SDS011;38103;42.776;23.112;2023-08-07T12:28:18;5.30;;;2.20;;
52104;SDS011;38103;42.776;23.112;2023-08-07T12:30:47;7.20;;;2.30;;
52104;SDS011;38103;42.776;23.112;2023-08-07T12:33:13;7.22;;;2.50;;
52104;SDS011;38103;42.776;23.112;2023-08-07T12:35:39;9.05;;;2.42;;
52104;SDS011;38103;42.776;23.112;2023-08-07T12:38:06;24.10;;;6.28;;
52104;SDS011;38103;42.776;23.112;2023-08-07T12:40:31;10.52;;;3.15;;
52104;SDS011;38103;42.776;23.112;2023-08-07T12:42:59;5.82;;;2.30;;
52104;SDS011;38103;42.776;23.112;2023-08-07T12:45:25;6.75;;;2.30;;
52104;SDS011;38103;42.776;23.112;2023-08-07T12:47:50;8.00;;;2.40;;
52104;SDS011;38103;42.776;23.112;2023-08-07T12:50:15;6.75;;;2.30;;
52104;SDS011;38103;42.776;23.112;2023-08-07T12:52:41;8.52;;;2.35;;
52104;SDS011;38103;42.776;23.112;2023-08-07T12:55:06;5.55;;;2.15;;
52104;SDS011;38103;42.776;23.112;2023-08-07T12:57:32;7.60;;;2.10;;
52104;SDS011;38103;42.776;23.112;2023-08-07T12:59:58;4.78;;;2.08;;
52104;SDS011;38103;42.776;23.112;2023-08-07T13:02:23;6.45;;;2.35;;
52104;SDS011;38103;42.776;23.112;2023-08-07T13:04:48;8.80;;;2.50;;
52104;SDS011;38103;42.776;23.112;2023-08-07T13:07:14;8.25;;;2.45;;
52104;SDS011;38103;42.776;23.112;2023-08-07T13:09:39;8.23;;;2.35;;
52104;SDS011;38103;42.776;23.112;2023-08-07T13:12:05;13.88;;;2.80;;
52104;SDS011;38103;42.776;23.112;2023-08-07T13:14:30;8.07;;;2.60;;
52104;SDS011;38103;42.776;23.112;2023-08-07T13:16:56;17.75;;;3.20;;
52104;SDS011;38103;42.776;23.112;2023-08-07T13:19:21;12.88;;;2.40;;
52104;SDS011;38103;42.776;23.112;2023-08-07T13:21:46;7.15;;;2.70;;
52104;SDS011;38103;42.776;23.112;2023-08-07T13:24:12;10.02;;;2.50;;
52104;SDS011;38103;42.776;23.112;2023-08-07T13:26:37;6.63;;;2.53;;
52104;SDS011;38103;42.776;23.112;2023-08-07T13:29:09;11.77;;;2.95;;
52104;SDS011;38103;42.776;23.112;2023-08-07T13:31:35;7.70;;;2.63;;
52104;SDS011;38103;42.776;23.112;2023-08-07T13:34:00;7.53;;;2.60;;
52104;SDS011;38103;42.776;23.112;2023-08-07T13:36:31;8.70;;;2.75;;
52104;SDS011;38103;42.776;23.112;2023-08-07T13:38:57;10.35;;;2.50;;
52104;SDS011;38103;42.776;23.112;2023-08-07T13:41:23;7.80;;;2.80;;
52104;SDS011;38103;42.776;23.112;2023-08-07T13:43:48;8.35;;;2.58;;
52104;SDS011;38103;42.776;23.112;2023-08-07T13:46:13;9.43;;;2.65;;
52104;SDS011;38103;42.776;23.112;2023-08-07T13:48:39;7.35;;;2.50;;
52104;SDS011;38103;42.776;23.112;2023-08-07T13:51:04;7.53;;;2.60;;
52104;SDS011;38103;42.776;23.112;2023-08-07T13:53:32;7.38;;;2.60;;
52104;SDS011;38103;42.776;23.112;2023-08-07T13:55:57;6.80;;;2.60;;
52104;SDS011;38103;42.776;23.112;2023-08-07T13:58:22;8.05;;;2.67;;
52104;SDS011;38103;42.776;23.112;2023-08-07T14:00:48;9.30;;;2.65;;
52104;SDS011;38103;42.776;23.112;2023-08-07T14:03:13;8.05;;;2.40;;
52104;SDS011;38103;42.776;23.112;2023-08-07T14:05:39;7.38;;;2.25;;
52104;SDS011;38103;42.776;23.112;2023-08-07T14:08:04;6.93;;;2.28;;
52104;SDS011;38103;42.776;23.112;2023-08-07T14:10:30;10.27;;;2.50;;
52104;SDS011;38103;42.776;23.112;2023-08-07T14:12:55;6.20;;;2.30;;
52104;SDS011;38103;42.776;23.112;2023-08-07T14:15:20;6.57;;;2.30;;
52104;SDS011;38103;42.776;23.112;2023-08-07T14:17:46;7.07;;;2.20;;
52104;SDS011;38103;42.776;23.112;2023-08-07T14:20:11;8.13;;;2.75;;
52104;SDS011;38103;42.776;23.112;2023-08-07T14:22:37;7.15;;;2.50;;
52104;SDS011;38103;42.776;23.112;2023-08-07T14:25:03;9.68;;;2.40;;
52104;SDS011;38103;42.776;23.112;2023-08-07T14:27:29;6.63;;;2.40;;
52104;SDS011;38103;42.776;23.112;2023-08-07T14:29:55;7.20;;;2.50;;
52104;SDS011;38103;42.776;23.112;2023-08-07T14:32:21;5.60;;;2.05;;
52104;SDS011;38103;42.776;23.112;2023-08-07T14:34:47;13.15;;;2.40;;
52104;SDS011;38103;42.776;23.112;2023-08-07T14:37:14;12.43;;;3.00;;
52104;SDS011;38103;42.776;23.112;2023-08-07T14:39:39;8.75;;;2.55;;
52104;SDS011;38103;42.776;23.112;2023-08-07T14:42:05;10.07;;;2.55;;
52104;SDS011;38103;42.776;23.112;2023-08-07T14:44:32;8.23;;;2.55;;